Time;durP1;ratioP1;P1;durP2;ratioP2;P2;SDS_P1;SDS_P2;PMS_P1;PMS_P2;Temp;Humidity;BMP_temperature;BMP_pressure;BME280_temperature;BME280_humidity;BME280_pressure;Samples;Min_cycle;Max_cycle;Signal;HPM_P1;HPM_P2
2023/07/22 00:00:13;;;;;;;;;;;;;;;27.78;62.55;99373.50;319181;30;4322;-80
2023/07/22 00:00:23;;;;;;;;;;;;;;;27.81;62.31;99375.81;314340;31;4531;-80
2023/07/22 00:00:33;;;;;;;;;;;;;;;27.82;62.32;99372.13;311945;31;1221;-80
2023/07/22 00:00:44;;;;;;;;;;;;;;;27.83;62.30;99377.31;313907;31;4275;-80
2023/07/22 00:00:54;;;;;;;;;;;;;;;27.83;62.29;99376.50;313790;31;4947;-80
2023/07/22 00:01:04;;;;;;;;;;;;;;;27.83;61.98;99377.31;313121;31;1252;-80
2023/07/22 00:01:15;;;;;;;;;;;;;;;27.81;61.94;99375.81;310350;31;3060;-80
2023/07/22 00:01:25;;;;;;;;;;;;;;;27.80;62.42;99376.84;308845;31;3222;-80
2023/07/22 00:01:36;;;;;;;;;;;;;;;27.80;62.13;99376.84;307662;32;1196;-80
2023/07/22 00:01:47;;;;;;;;;;;;;;;27.79;62.36;99376.00;305515;32;1173;-80
2023/07/22 00:01:57;;;;;;;;;;;;;;;27.81;61.96;99375.81;304941;32;5122;-80
2023/07/22 00:02:07;;;;;;;;;;;;;;;27.81;62.11;99379.34;300850;32;6730;-80
2023/07/22 00:02:18;;;;;;;;;;;;;;;27.79;62.33;99377.84;300327;32;1286;-80
2023/07/22 00:02:29;;;;;;;;;;;;;;;27.78;62.17;99374.34;299982;32;6953;-80
2023/07/22 00:02:41;;;;;;;;;;;;;;;27.81;62.32;99381.22;298360;32;6378;-80
2023/07/22 00:02:51;;;;;;;;;;;;;;;27.81;62.01;99376.66;298296;33;1287;-80
2023/07/22 00:03:01;;;;;;;;;;;;;;;27.82;62.49;99380.19;295928;33;5927;-80
2023/07/22 00:03:11;;;;;;;;;;;;;;;27.82;62.00;99374.81;295546;33;5837;-80
2023/07/22 00:03:23;;;;;;;;;;;;;;;27.82;62.36;99372.13;293577;33;4426;-79
2023/07/22 00:03:33;;;;;;;;;;;;;;;27.84;61.97;99380.84;293363;33;808;-79
2023/07/22 00:03:43;;;;;;;;;;;;;;;27.85;62.26;99374.47;289133;34;5188;-79
2023/07/22 00:03:53;;;;;;;;;;;;;;;27.84;62.36;99375.47;288081;33;6836;-79
2023/07/22 00:04:04;;;;;;;;;;;;;;;27.81;62.09;99378.53;288574;34;1255;-79
2023/07/22 00:04:14;;;;;;;;;;;;;;;27.77;62.44;99374.50;285057;34;7540;-79
2023/07/22 00:06:44;;;;;;;;;;;;;;;27.37;63.72;99375.56;2496747;27;19933;-79
2023/07/22 00:06:55;;;;;;;;;;;;;;;27.37;64.03;99373.72;354735;27;867;-79
2023/07/22 00:07:05;;;;;;;;;;;;;;;27.38;63.58;99367.34;352401;28;1373;-79
2023/07/22 00:07:15;;;;;;;;;;;;;;;27.36;63.80;99368.53;350925;28;1361;-79
2023/07/22 00:07:26;;;;;;;;;;;;;;;27.35;63.85;99369.53;349177;28;1192;-79
2023/07/22 00:07:36;;;;;;;;;;;;;;;27.36;63.84;99366.66;347938;28;761;-79
2023/07/22 00:07:47;;;;;;;;;;;;;;;27.36;63.75;99369.34;348843;28;1156;-79
2023/07/22 00:07:57;;;;;;;;;;;;;;;27.38;64.00;99367.34;348966;28;1306;-79
2023/07/22 00:08:08;;;;;;;;;;;;;;;27.38;63.55;99361.97;347612;28;1176;-79
2023/07/22 00:08:18;;;;;;;;;;;;;;;27.38;64.07;99367.34;348842;28;1202;-79
2023/07/22 00:08:28;;;;;;;;;;;;;;;27.40;63.74;99370.69;347807;28;773;-79
2023/07/22 00:08:38;;;;;;;;;;;;;;;27.43;63.89;99375.72;347499;28;1420;-79
2023/07/22 00:08:49;;;;;;;;;;;;;;;27.43;63.82;99364.97;349107;28;1319;-79
2023/07/22 00:08:59;;;;;;;;;;;;;;;27.43;63.75;99364.97;348967;28;1338;-79
2023/07/22 00:09:09;;;;;;;;;;;;;;;27.43;63.42;99362.25;348514;28;1279;-79
2023/07/22 00:09:20;;;;;;;;;;;;;;;27.46;63.98;99364.59;347826;28;1307;-79
2023/07/22 00:09:33;;;;;;;;;;;;;;;27.48;63.31;99367.97;347852;28;1352;-79
2023/07/22 00:09:43;;;;;;;;;;;;;;;27.45;63.36;99365.63;347107;28;1260;-79
2023/07/22 00:09:54;;;;;;;;;;;;;;;27.44;63.48;99368.47;349215;28;1239;-79
2023/07/22 00:10:05;;;;;;;;;;;;;;;27.39;63.83;99360.94;347709;28;907;-79
2023/07/22 00:10:15;;;;;;;;;;;;;;;27.34;63.84;99363.31;347820;28;1226;-79
2023/07/22 00:10:25;;;;;;;;;;;;;;;27.35;64.10;99361.47;347145;28;1363;-79
2023/07/22 00:10:36;;;;;;;;;;;;;;;27.34;64.11;99359.78;347779;28;1191;-79
2023/07/22 00:10:47;;;;;;;;;;;;;;;27.34;63.99;99363.31;349377;28;1316;-79
2023/07/22 00:10:57;;;;;;;;;;;;;;;27.35;63.90;99367.69;346240;28;1352;-79
2023/07/22 00:11:07;;;;;;;;;;;;;;;27.32;63.95;99357.28;348165;28;1378;-79
2023/07/22 00:11:17;;;;;;;;;;;;;;;27.34;63.81;99365.16;349863;28;1287;-79
2023/07/22 00:11:27;;;;;;;;;;;;;;;27.34;64.17;99363.31;347756;28;1462;-79
2023/07/22 00:11:38;;;;;;;;;;;;;;;27.33;64.20;99358.97;349198;28;1286;-79
2023/07/22 00:11:49;;;;;;;;;;;;;;;27.33;64.11;99360.81;347664;28;1227;-79
2023/07/22 00:11:59;;;;;;;;;;;;;;;27.35;64.01;99367.69;347943;28;1090;-79
2023/07/22 00:12:09;;;;;;;;;;;;;;;27.38;64.03;99366.50;346279;28;1275;-79
2023/07/22 00:12:19;;;;;;;;;;;;;;;27.38;63.92;99356.59;344905;28;960;-79
2023/07/22 00:12:30;;;;;;;;;;;;;;;27.37;64.09;99365.66;349018;28;1278;-79
2023/07/22 00:12:41;;;;;;;;;;;;;;;27.35;64.04;99354.25;349080;28;1234;-79
2023/07/22 00:12:51;;;;;;;;;;;;;;;27.33;64.09;99358.13;344832;28;1188;-79
2023/07/22 00:13:01;;;;;;;;;;;;;;;27.31;64.09;99360.16;342349;28;1370;-79
2023/07/22 00:13:12;;;;;;;;;;;;;;;27.26;64.20;99358.00;343296;28;1119;-79
2023/07/22 00:13:22;;;;;;;;;;;;;;;27.28;64.05;99355.16;344790;28;1304;-79
2023/07/22 00:13:32;;;;;;;;;;;;;;;27.32;64.44;99357.28;346355;28;888;-79
2023/07/22 00:13:43;;;;;;;;;;;;;;;27.34;63.84;99355.25;347872;28;817;-79
2023/07/22 00:13:54;;;;;;;;;;;;;;;27.37;64.20;99360.28;346855;28;1214;-79
2023/07/22 00:14:06;;;;;;;;;;;;;;;27.36;63.81;99358.59;343482;28;1468;-79
2023/07/22 00:14:16;;;;;;;;;;;;;;;27.35;63.67;99356.09;342455;28;1425;-79
2023/07/22 00:14:26;;;;;;;;;;;;;;;27.35;64.28;99359.63;343446;28;1217;-79
2023/07/22 00:14:40;;;;;;;;;;;;;;;27.34;63.98;99365.16;340389;28;1282;-79
2023/07/22 00:14:50;;;;;;;;;;;;;;;27.35;63.81;99356.94;341829;28;1441;-79
2023/07/22 00:15:02;;;;;;;;;;;;;;;27.37;64.31;99360.28;343336;28;1202;-79
2023/07/22 00:15:12;;;;;;;;;;;;;;;27.37;63.94;99360.28;340783;28;1210;-79
2023/07/22 00:15:23;;;;;;;;;;;;;;;27.37;64.00;99359.44;342417;28;3431;-79
2023/07/22 00:15:34;;;;;;;;;;;;;;;27.36;63.99;99358.59;340441;28;3074;-79
2023/07/22 00:15:45;;;;;;;;;;;;;;;27.35;63.90;99359.63;339449;29;1252;-79
2023/07/22 00:15:55;;;;;;;;;;;;;;;27.36;64.05;99358.59;340962;29;1276;-79
2023/07/22 00:16:07;;;;;;;;;;;;;;;27.35;64.22;99362.31;339595;29;1317;-79
2023/07/22 00:16:18;;;;;;;;;;;;;;;27.33;64.02;99358.97;340705;29;900;-79
2023/07/22 00:16:29;;;;;;;;;;;;;;;27.30;64.26;99355.78;338645;29;1374;-79
2023/07/22 00:16:39;;;;;;;;;;;;;;;27.27;64.36;99358.84;337410;29;1399;-79
2023/07/22 00:16:49;;;;;;;;;;;;;;;27.25;64.29;99356.34;337053;28;1838;-79
2023/07/22 00:17:00;;;;;;;;;;;;;;;27.21;64.58;99356.88;337081;29;1207;-79
2023/07/22 00:17:10;;;;;;;;;;;;;;;27.20;64.72;99364.09;339361;29;1914;-79
2023/07/22 00:17:24;;;;;;;;;;;;;;;27.19;64.86;99364.25;338114;29;2039;-79
2023/07/22 00:17:34;;;;;;;;;;;;;;;27.15;64.89;99361.94;336896;29;1836;-79
2023/07/22 00:17:45;;;;;;;;;;;;;;;27.15;64.88;99359.22;333436;29;1385;-79
2023/07/22 00:17:55;;;;;;;;;;;;;;;27.15;64.43;99364.59;334404;29;1486;-79
2023/07/22 00:18:06;;;;;;;;;;;;;;;27.17;64.84;99359.06;334262;29;1291;-79
2023/07/22 00:18:16;;;;;;;;;;;;;;;27.20;64.56;99364.09;333304;29;1449;-79
2023/07/22 00:18:27;;;;;;;;;;;;;;;27.22;64.21;99364.75;335365;29;1102;-79
2023/07/22 00:18:37;;;;;;;;;;;;;;;27.19;64.61;99362.41;332025;29;1867;-79
2023/07/22 00:18:47;;;;;;;;;;;;;;;27.17;64.47;99361.75;330670;29;1454;-79
2023/07/22 00:18:58;;;;;;;;;;;;;;;27.17;64.80;99367.13;325603;30;2240;-79
2023/07/22 00:19:08;;;;;;;;;;;;;;;27.15;64.48;99367.28;325115;30;2201;-79
2023/07/22 00:19:18;;;;;;;;;;;;;;;27.12;64.61;99372.19;323485;30;1219;-79
2023/07/22 00:19:28;;;;;;;;;;;;;;;27.13;64.86;99368.47;324049;30;2725;-79
2023/07/22 00:19:38;;;;;;;;;;;;;;;27.11;64.84;99371.34;324745;30;2406;-79
2023/07/22 00:19:49;;;;;;;;;;;;;;;27.08;65.05;99368.16;325623;30;1990;-79
2023/07/22 00:20:00;;;;;;;;;;;;;;;27.07;65.38;99369.19;328297;30;1279;-79
2023/07/22 00:20:11;;;;;;;;;;;;;;;27.08;65.17;99374.38;326878;30;1529;-79
2023/07/22 00:20:22;;;;;;;;;;;;;;;27.07;64.71;99371.88;327999;30;1350;-79
2023/07/22 00:20:32;;;;;;;;;;;;;;;27.07;65.26;99369.19;325766;30;1297;-79
2023/07/22 00:20:42;;;;;;;;;;;;;;;27.08;64.85;99378.91;323340;30;2301;-79
2023/07/22 00:20:53;;;;;;;;;;;;;;;27.10;65.22;99379.56;324165;30;2468;-79
2023/07/22 00:21:03;;;;;;;;;;;;;;;27.13;65.09;99376.53;326935;30;1313;-79
2023/07/22 00:21:14;;;;;;;;;;;;;;;27.13;65.10;99373.84;318786;31;806;-79
2023/07/22 00:21:24;;;;;;;;;;;;;;;27.07;65.09;99366.50;316344;31;2936;-79
2023/07/22 00:21:34;;;;;;;;;;;;;;;27.04;64.96;99369.53;316016;30;3484;-79
2023/07/22 00:21:44;;;;;;;;;;;;;;;27.06;65.08;99372.88;317973;31;1365;-79
2023/07/22 00:21:55;;;;;;;;;;;;;;;27.10;64.91;99375.03;311506;31;3225;-79
2023/07/22 00:22:05;;;;;;;;;;;;;;;27.10;64.95;99374.19;310043;31;2398;-79
2023/07/22 00:22:15;;;;;;;;;;;;;;;27.12;64.84;99377.56;311924;31;1246;-79
2023/07/22 00:22:26;;;;;;;;;;;;;;;27.14;64.86;99379.06;311774;31;1962;-79
2023/07/22 00:22:40;;;;;;;;;;;;;;;27.11;65.04;99378.56;312194;31;1858;-79
2023/07/22 00:22:50;;;;;;;;;;;;;;;27.12;65.16;99377.56;310274;31;2602;-79
2023/07/22 00:23:00;;;;;;;;;;;;;;;27.11;65.19;99375.88;309953;31;828;-79
2023/07/22 00:23:10;;;;;;;;;;;;;;;27.12;64.76;99372.19;308128;31;3659;-79
2023/07/22 00:23:21;;;;;;;;;;;;;;;27.11;65.21;99376.72;306149;32;4509;-79
2023/07/22 00:23:31;;;;;;;;;;;;;;;27.13;65.26;99373.84;304338;32;1262;-79
2023/07/22 00:23:42;;;;;;;;;;;;;;;27.14;64.88;99380.91;304319;32;4836;-79
2023/07/22 00:23:52;;;;;;;;;;;;;;;27.14;64.91;99371.00;306371;32;4613;-79
2023/07/22 00:24:02;;;;;;;;;;;;;;;27.15;64.70;99377.22;306167;32;1376;-79
2023/07/22 00:24:13;;;;;;;;;;;;;;;27.16;64.90;99381.56;306674;32;4347;-79
2023/07/22 00:24:23;;;;;;;;;;;;;;;27.10;65.09;99371.53;305001;32;3564;-79
2023/07/22 00:24:33;;;;;;;;;;;;;;;27.08;65.05;99382.44;301215;32;1338;-79
2023/07/22 00:24:44;;;;;;;;;;;;;;;27.07;65.30;99377.25;296479;33;3579;-79
2023/07/22 00:24:54;;;;;;;;;;;;;;;27.02;65.04;99379.59;294520;33;5769;-79
2023/07/22 00:25:04;;;;;;;;;;;;;;;27.00;65.37;99373.56;293274;33;3919;-79
2023/07/22 00:25:14;;;;;;;;;;;;;;;27.02;65.14;99376.91;292404;33;1334;-79
2023/07/22 00:25:25;;;;;;;;;;;;;;;27.05;65.08;99377.41;291611;33;6096;-79
2023/07/22 00:25:35;;;;;;;;;;;;;;;27.11;64.90;99378.56;289681;33;6539;-79
2023/07/22 00:25:48;;;;;;;;;;;;;;;27.14;64.92;99375.53;290593;34;1343;-79
2023/07/22 00:25:58;;;;;;;;;;;;;;;27.20;64.66;99374.00;285351;34;6912;-79
2023/07/22 00:26:09;;;;;;;;;;;;;;;27.22;64.53;99375.50;285467;34;7325;-79
2023/07/22 00:26:19;;;;;;;;;;;;;;;27.25;64.85;99377.84;285169;34;7475;-79
2023/07/22 00:26:29;;;;;;;;;;;;;;;27.25;64.85;99374.31;282776;34;1242;-79
2023/07/22 00:26:39;;;;;;;;;;;;;;;27.22;64.53;99378.19;280164;34;5331;-79
2023/07/22 00:26:51;;;;;;;;;;;;;;;27.20;64.94;99379.38;277822;35;3978;-79
2023/07/22 00:27:01;;;;;;;;;;;;;;;27.17;64.63;99383.25;276993;35;1256;-79
2023/07/22 00:27:11;;;;;;;;;;;;;;;27.17;64.77;99381.41;273714;35;4212;-79
2023/07/22 00:27:22;;;;;;;;;;;;;;;27.18;64.95;99371.50;273877;35;6446;-79
2023/07/22 00:27:32;;;;;;;;;;;;;;;27.16;64.98;99378.88;274983;35;1154;-79
2023/07/22 00:29:42;;;;;;;;;;;;;;;27.20;64.61;99369.47;2499922;27;19966;-80
2023/07/22 00:29:52;;;;;;;;;;;;;;;27.20;64.78;99368.63;353091;28;1325;-80
2023/07/22 00:30:03;;;;;;;;;;;;;;;27.17;64.87;99370.66;350612;28;1189;-80
2023/07/22 00:30:13;;;;;;;;;;;;;;;27.13;65.01;99374.69;347740;28;1337;-80
2023/07/22 00:30:25;;;;;;;;;;;;;;;27.13;65.16;99376.53;349171;28;1228;-80
2023/07/22 00:30:35;;;;;;;;;;;;;;;27.13;65.07;99374.69;349043;28;1291;-80
2023/07/22 00:30:45;;;;;;;;;;;;;;;27.13;64.93;99374.69;349184;28;1231;-80
2023/07/22 00:30:57;;;;;;;;;;;;;;;27.14;65.46;99375.53;349220;28;1350;-80
2023/07/22 00:31:08;;;;;;;;;;;;;;;27.09;65.19;99381.44;347854;28;1295;-80
2023/07/22 00:31:18;;;;;;;;;;;;;;;27.09;64.97;99375.22;349360;28;844;-80
2023/07/22 00:31:28;;;;;;;;;;;;;;;27.11;64.92;99375.88;349149;28;1341;-80
2023/07/22 00:31:39;;;;;;;;;;;;;;;27.13;64.88;99380.06;350427;28;1291;-80
2023/07/22 00:31:49;;;;;;;;;;;;;;;27.13;65.08;99379.22;350446;28;1227;-80
2023/07/22 00:31:59;;;;;;;;;;;;;;;27.13;65.03;99379.22;348817;28;1211;-80
2023/07/22 00:32:09;;;;;;;;;;;;;;;27.11;65.16;99381.25;347911;28;1336;-80
2023/07/22 00:32:19;;;;;;;;;;;;;;;27.11;65.09;99386.63;346826;28;1180;-80
2023/07/22 00:32:30;;;;;;;;;;;;;;;27.10;64.71;99380.41;347603;28;1212;-80
2023/07/22 00:32:40;;;;;;;;;;;;;;;27.11;64.90;99375.88;344925;28;1331;-80
2023/07/22 00:32:51;;;;;;;;;;;;;;;27.12;65.19;99382.94;347892;28;1183;-80
2023/07/22 00:33:01;;;;;;;;;;;;;;;27.11;65.14;99381.25;347731;28;1101;-80
2023/07/22 00:33:12;;;;;;;;;;;;;;;27.11;64.95;99373.19;346397;28;849;-80
2023/07/22 00:33:23;;;;;;;;;;;;;;;27.11;64.95;99375.88;346404;28;1275;-80
2023/07/22 00:33:33;;;;;;;;;;;;;;;27.12;64.78;99380.25;347617;28;1335;-80
2023/07/22 00:33:43;;;;;;;;;;;;;;;27.14;65.23;99380.91;346308;28;1273;-80
2023/07/22 00:33:54;;;;;;;;;;;;;;;27.17;64.68;99380.56;348843;28;2757;-80
2023/07/22 00:34:04;;;;;;;;;;;;;;;27.18;64.85;99387.59;345388;28;5623;-80
2023/07/22 00:34:14;;;;;;;;;;;;;;;27.21;64.70;99376.50;346226;28;3304;-81
2023/07/22 00:34:24;;;;;;;;;;;;;;;27.22;64.67;99372.81;347589;28;1328;-80
2023/07/22 00:34:36;;;;;;;;;;;;;;;27.24;64.61;99373.47;344851;28;3694;-80
2023/07/22 00:34:46;;;;;;;;;;;;;;;27.27;64.46;99373.13;343787;28;1437;-80
2023/07/22 00:34:57;;;;;;;;;;;;;;;27.29;64.55;99375.66;345594;28;1280;-80
2023/07/22 00:35:07;;;;;;;;;;;;;;;27.31;64.47;99377.09;347703;28;1278;-80
2023/07/22 00:35:17;;;;;;;;;;;;;;;27.33;64.63;99380.47;344927;28;1249;-80
2023/07/22 00:35:27;;;;;;;;;;;;;;;27.32;64.63;99378.78;346326;28;1293;-80
2023/07/22 00:35:38;;;;;;;;;;;;;;;27.31;64.20;99378.97;347777;28;1328;-80
2023/07/22 00:35:51;;;;;;;;;;;;;;;27.31;64.46;99376.28;347492;28;1214;-80
2023/07/22 00:36:01;;;;;;;;;;;;;;;27.33;64.58;99385.00;348996;28;1256;-80
2023/07/22 00:36:12;;;;;;;;;;;;;;;27.33;64.33;99380.47;348050;28;1098;-80
2023/07/22 00:36:22;;;;;;;;;;;;;;;27.35;64.25;99377.59;347155;28;1219;-80
2023/07/22 00:36:32;;;;;;;;;;;;;;;27.37;64.66;99378.25;344954;28;1203;-80
2023/07/22 00:36:44;;;;;;;;;;;;;;;27.38;64.43;99383.47;346559;28;1249;-79
2023/07/22 00:36:54;;;;;;;;;;;;;;;27.40;64.35;99380.59;343691;28;1248;-79
2023/07/22 00:37:05;;;;;;;;;;;;;;;27.37;64.53;99378.25;345588;28;1091;-80
2023/07/22 00:37:16;;;;;;;;;;;;;;;27.36;64.42;99381.97;346533;28;1404;-80
2023/07/22 00:37:27;;;;;;;;;;;;;;;27.30;64.63;99380.81;347983;28;1346;-80
2023/07/22 00:37:37;;;;;;;;;;;;;;;27.25;64.50;99377.84;344927;28;1302;-80
2023/07/22 00:37:47;;;;;;;;;;;;;;;27.20;64.74;99377.53;342486;28;1473;-80
2023/07/22 00:37:58;;;;;;;;;;;;;;;27.19;64.99;99383.91;346449;28;1197;-80
2023/07/22 00:38:09;;;;;;;;;;;;;;;27.16;65.02;99385.09;346252;28;1329;-80
2023/07/22 00:38:20;;;;;;;;;;;;;;;27.16;64.91;99384.25;342700;28;1261;-80
2023/07/22 00:38:30;;;;;;;;;;;;;;;27.17;64.83;99380.56;342215;28;1078;-80
2023/07/22 00:38:41;;;;;;;;;;;;;;;27.17;64.85;99388.63;342094;28;1338;-80
2023/07/22 00:38:52;;;;;;;;;;;;;;;27.16;64.97;99385.09;342342;28;1317;-80
2023/07/22 00:39:02;;;;;;;;;;;;;;;27.13;65.03;99389.97;342053;28;1483;-81
2023/07/22 00:39:15;;;;;;;;;;;;;;;27.10;65.13;99385.78;342450;28;1420;-80
2023/07/22 00:39:25;;;;;;;;;;;;;;;27.07;65.25;99385.31;344905;28;1370;-80
2023/07/22 00:39:36;;;;;;;;;;;;;;;27.05;65.26;99384.63;339943;28;1641;-80
2023/07/22 00:39:46;;;;;;;;;;;;;;;27.03;65.16;99389.34;338001;28;1677;-80
2023/07/22 00:39:56;;;;;;;;;;;;;;;27.02;65.48;99384.97;338803;29;790;-80
2023/07/22 00:40:11;;;;;;;;;;;;;;;27.00;65.54;99389.69;339165;28;1943;-80
2023/07/22 00:40:22;;;;;;;;;;;;;;;26.97;65.60;99390.03;335385;29;1445;-80
2023/07/22 00:40:33;;;;;;;;;;;;;;;26.97;65.75;99390.03;333987;29;1660;-80
2023/07/22 00:40:43;;;;;;;;;;;;;;;26.94;65.62;99385.81;337211;29;791;-80
2023/07/22 00:40:53;;;;;;;;;;;;;;;26.93;65.91;99383.28;333877;29;1357;-80
2023/07/22 00:41:04;;;;;;;;;;;;;;;26.93;65.85;99394.03;335535;29;1338;-80
2023/07/22 00:41:14;;;;;;;;;;;;;;;26.89;66.05;99385.47;338474;29;1219;-80
2023/07/22 00:41:25;;;;;;;;;;;;;;;26.88;65.96;99391.03;335974;29;1207;-80
2023/07/22 00:41:36;;;;;;;;;;;;;;;26.84;65.85;99386.03;335768;29;2146;-80
2023/07/22 00:41:46;;;;;;;;;;;;;;;26.84;65.91;99394.09;335996;29;955;-80
2023/07/22 00:41:57;;;;;;;;;;;;;;;26.81;66.02;99389.06;334750;29;929;-80
2023/07/22 00:42:08;;;;;;;;;;;;;;;26.83;66.30;99386.22;328023;29;2158;-80
2023/07/22 00:42:20;;;;;;;;;;;;;;;26.81;66.18;99386.38;325359;30;2997;-80
2023/07/22 00:42:30;;;;;;;;;;;;;;;26.83;66.60;99387.03;329676;30;1378;-80
2023/07/22 00:42:41;;;;;;;;;;;;;;;26.86;66.34;99387.72;326538;30;2138;-80
2023/07/22 00:42:51;;;;;;;;;;;;;;;26.86;66.32;99385.03;325417;30;2137;-80
2023/07/22 00:43:01;;;;;;;;;;;;;;;26.87;66.02;99383.97;324462;30;1381;-80
2023/07/22 00:43:11;;;;;;;;;;;;;;;26.87;66.36;99386.66;326735;30;3834;-80
2023/07/22 00:43:22;;;;;;;;;;;;;;;26.86;65.97;99385.03;323127;30;5872;-81
2023/07/22 00:43:32;;;;;;;;;;;;;;;26.84;66.13;99391.41;322678;30;6300;-80
2023/07/22 00:43:43;;;;;;;;;;;;;;;26.84;66.35;99391.41;323454;30;1341;-80
2023/07/22 00:43:53;;;;;;;;;;;;;;;26.83;66.34;99388.88;321012;30;3193;-80
2023/07/22 00:44:03;;;;;;;;;;;;;;;26.82;66.35;99381.84;320507;30;3047;-80
2023/07/22 00:44:14;;;;;;;;;;;;;;;26.83;66.15;99386.22;323288;30;1450;-80
2023/07/22 00:44:24;;;;;;;;;;;;;;;26.83;66.38;99381.66;321714;30;3209;-80
2023/07/22 00:44:34;;;;;;;;;;;;;;;26.84;66.22;99386.03;319270;30;4164;-80
2023/07/22 00:44:44;;;;;;;;;;;;;;;26.83;65.85;99384.34;317673;31;1198;-80
2023/07/22 00:44:55;;;;;;;;;;;;;;;26.87;66.22;99389.34;320044;30;3025;-80
2023/07/22 00:45:06;;;;;;;;;;;;;;;26.89;66.28;99387.34;318661;30;2518;-80
2023/07/22 00:45:17;;;;;;;;;;;;;;;26.91;66.13;99379.94;316653;31;1519;-80
2023/07/22 00:45:28;;;;;;;;;;;;;;;26.95;65.78;99381.28;313951;31;1374;-80
2023/07/22 00:45:38;;;;;;;;;;;;;;;26.97;66.00;99387.34;314557;31;1798;-80
2023/07/22 00:45:49;;;;;;;;;;;;;;;26.99;65.59;99390.69;309655;31;2478;-79
2023/07/22 00:45:59;;;;;;;;;;;;;;;26.98;65.62;99386.34;306667;32;805;-80
2023/07/22 00:46:09;;;;;;;;;;;;;;;26.99;65.68;99391.53;307268;32;3213;-80
2023/07/22 00:46:19;;;;;;;;;;;;;;;27.00;65.59;99389.69;307582;31;4676;-80
2023/07/22 00:46:29;;;;;;;;;;;;;;;27.01;65.82;99386.00;307593;32;922;-80
2023/07/22 00:46:40;;;;;;;;;;;;;;;27.03;65.86;99383.97;306755;31;4923;-80
2023/07/22 00:46:50;;;;;;;;;;;;;;;27.03;65.52;99381.28;307719;31;5206;-80
2023/07/22 00:47:00;;;;;;;;;;;;;;;27.05;65.87;99388.16;306800;32;1237;-80
2023/07/22 00:47:10;;;;;;;;;;;;;;;27.06;65.76;99383.63;301825;32;4146;-80
2023/07/22 00:47:21;;;;;;;;;;;;;;;27.04;65.38;99381.09;299309;32;3352;-80
2023/07/22 00:47:32;;;;;;;;;;;;;;;26.97;65.87;99387.34;299102;33;1218;-80
2023/07/22 00:47:42;;;;;;;;;;;;;;;26.92;65.98;99381.63;300493;32;1242;-80
2023/07/22 00:47:52;;;;;;;;;;;;;;;26.88;66.05;99381.13;297065;33;2779;-80
2023/07/22 00:48:03;;;;;;;;;;;;;;;26.85;66.10;99384.19;296192;32;3911;-80
2023/07/22 00:48:14;;;;;;;;;;;;;;;26.81;66.30;99380.16;295265;33;1374;-80
2023/07/22 00:48:24;;;;;;;;;;;;;;;26.80;66.48;99383.84;299745;32;4691;-80
2023/07/22 00:48:34;;;;;;;;;;;;;;;26.74;66.65;99382.69;297289;33;6318;-80
2023/07/22 00:48:44;;;;;;;;;;;;;;;26.74;66.41;99380.00;296184;33;1322;-80
2023/07/22 00:48:54;;;;;;;;;;;;;;;26.74;66.84;99384.53;290190;33;8084;-80
2023/07/22 00:49:06;;;;;;;;;;;;;;;26.76;66.52;99379.84;289616;33;7495;-80
2023/07/22 00:49:16;;;;;;;;;;;;;;;26.77;66.12;99389.56;292310;33;1301;-80
2023/07/22 00:49:26;;;;;;;;;;;;;;;26.80;66.80;99381.19;286689;34;1478;-81
2023/07/22 00:49:37;;;;;;;;;;;;;;;26.81;66.51;99381.00;286168;34;5060;-80
2023/07/22 00:49:48;;;;;;;;;;;;;;;26.84;66.38;99386.03;285594;34;3779;-80
2023/07/22 00:49:59;;;;;;;;;;;;;;;26.88;66.25;99385.66;285739;34;1211;-80
2023/07/22 00:50:09;;;;;;;;;;;;;;;26.88;66.46;99386.50;279706;34;4690;-80
2023/07/22 00:50:20;;;;;;;;;;;;;;;26.90;66.14;99389.00;278630;35;5529;-80
2023/07/22 00:50:30;;;;;;;;;;;;;;;26.91;66.26;99382.63;281117;35;1028;-80
2023/07/22 00:50:40;;;;;;;;;;;;;;;26.93;66.28;99391.34;280105;35;6645;-80
2023/07/22 00:50:51;;;;;;;;;;;;;;;26.92;66.20;99381.63;276448;35;9486;-80
2023/07/22 00:51:01;;;;;;;;;;;;;;;26.95;65.86;99386.66;274193;36;808;-80
2023/07/22 00:53:10;;;;;;;;;;;;;;;26.88;66.30;99388.34;2495918;27;19933;-79
2023/07/22 00:53:20;;;;;;;;;;;;;;;26.89;66.30;99388.16;355511;27;1041;-79
2023/07/22 00:53:30;;;;;;;;;;;;;;;26.89;66.27;99392.72;353240;28;1333;-79
2023/07/22 00:53:41;;;;;;;;;;;;;;;26.91;66.18;99396.06;352125;28;784;-79
2023/07/22 00:53:51;;;;;;;;;;;;;;;26.93;65.77;99394.03;350609;28;804;-80
2023/07/22 00:54:03;;;;;;;;;;;;;;;26.95;66.02;99392.03;348980;28;1189;-79
2023/07/22 00:54:14;;;;;;;;;;;;;;;26.98;66.02;99397.06;350569;28;1351;-79
2023/07/22 00:54:24;;;;;;;;;;;;;;;26.96;65.88;99393.72;353119;28;1247;-79
2023/07/22 00:54:34;;;;;;;;;;;;;;;26.91;66.20;99396.06;349168;28;1226;-79
2023/07/22 00:54:44;;;;;;;;;;;;;;;26.89;66.49;99392.72;350695;28;1255;-79
2023/07/22 00:54:59;;;;;;;;;;;;;;;26.89;66.21;99396.22;350729;28;1230;-80
2023/07/22 00:55:09;;;;;;;;;;;;;;;26.91;65.99;99393.38;350558;28;858;-79
2023/07/22 00:55:20;;;;;;;;;;;;;;;26.91;66.34;99396.91;350564;28;871;-80
2023/07/22 00:55:32;;;;;;;;;;;;;;;26.93;65.83;99394.03;348855;28;1252;-79
2023/07/22 00:55:43;;;;;;;;;;;;;;;26.93;65.92;99399.41;347962;28;1240;-79
2023/07/22 00:55:53;;;;;;;;;;;;;;;26.91;65.96;99393.38;348239;28;1096;-79
2023/07/22 00:56:04;;;;;;;;;;;;;;;26.89;66.00;99398.06;348851;28;1240;-81
2023/07/22 00:56:14;;;;;;;;;;;;;;;26.89;66.05;99398.06;350632;28;1362;-80
2023/07/22 00:56:24;;;;;;;;;;;;;;;26.91;66.29;99402.28;350622;28;1209;-80
2023/07/22 00:56:35;;;;;;;;;;;;;;;26.92;65.83;99397.75;347836;28;1451;-80
2023/07/22 00:56:46;;;;;;;;;;;;;;;26.94;66.05;99395.72;352140;28;1323;-80
2023/07/22 00:56:56;;;;;;;;;;;;;;;26.95;65.86;99403.59;352181;28;983;-80
2023/07/22 00:57:06;;;;;;;;;;;;;;;26.97;66.10;99396.25;350635;28;1371;-80
2023/07/22 00:57:17;;;;;;;;;;;;;;;26.99;65.94;99398.75;350547;28;1516;-80
2023/07/22 00:57:27;;;;;;;;;;;;;;;26.98;65.90;99399.78;349678;28;1481;-80
2023/07/22 00:57:38;;;;;;;;;;;;;;;26.97;65.58;99406.16;346553;28;1401;-80
2023/07/22 00:57:48;;;;;;;;;;;;;;;26.96;65.97;99399.09;346424;28;1309;-80
2023/07/22 00:57:58;;;;;;;;;;;;;;;26.95;66.13;99402.75;347893;28;1366;-80
2023/07/22 00:58:09;;;;;;;;;;;;;;;26.95;65.81;99397.38;349411;28;800;-80
2023/07/22 00:58:20;;;;;;;;;;;;;;;26.97;65.89;99400.78;349274;28;1204;-80
2023/07/22 00:58:31;;;;;;;;;;;;;;;26.95;65.73;99397.38;348303;28;1107;-80
2023/07/22 00:58:41;;;;;;;;;;;;;;;26.94;66.25;99401.09;345220;28;1306;-80
2023/07/22 00:58:51;;;;;;;;;;;;;;;26.93;65.75;99399.41;346321;28;866;-80
2023/07/22 00:59:02;;;;;;;;;;;;;;;26.93;65.91;99402.09;341735;28;1415;-80
2023/07/22 00:59:12;;;;;;;;;;;;;;;26.94;65.87;99401.94;345076;28;1222;-80
2023/07/22 00:59:23;;;;;;;;;;;;;;;26.97;65.86;99407.00;346048;28;1169;-80
2023/07/22 00:59:33;;;;;;;;;;;;;;;26.98;66.02;99408.66;346362;28;1180;-80
2023/07/22 00:59:43;;;;;;;;;;;;;;;26.93;65.92;99400.25;349095;28;1355;-80
2023/07/22 00:59:54;;;;;;;;;;;;;;;26.92;66.09;99406.63;350592;28;1063;-80
2023/07/22 01:00:05;;;;;;;;;;;;;;;26.87;66.16;99402.78;349226;28;1276;-80
2023/07/22 01:00:16;;;;;;;;;;;;;;;26.83;66.50;99400.47;345027;28;1244;-80
2023/07/22 01:00:26;;;;;;;;;;;;;;;26.82;66.39;99398.78;345500;28;1271;-79
2023/07/22 01:00:36;;;;;;;;;;;;;;;26.81;66.57;99405.19;345045;28;1259;-79
2023/07/22 01:00:48;;;;;;;;;;;;;;;26.79;66.57;99403.66;345001;28;1344;-79
2023/07/22 01:00:58;;;;;;;;;;;;;;;26.75;66.69;99408.53;347220;28;1111;-80
2023/07/22 01:01:08;;;;;;;;;;;;;;;26.71;66.66;99406.38;344511;28;1222;-79
2023/07/22 01:01:19;;;;;;;;;;;;;;;26.65;66.87;99412.41;345041;28;1632;-80
2023/07/22 01:01:29;;;;;;;;;;;;;;;26.61;66.93;99403.88;344791;28;1204;-80
2023/07/22 01:01:40;;;;;;;;;;;;;;;26.62;66.84;99413.59;343306;28;2494;-80
2023/07/22 01:01:50;;;;;;;;;;;;;;;26.63;67.20;99412.59;341145;28;3306;-80
2023/07/22 01:02:00;;;;;;;;;;;;;;;26.65;66.98;99407.06;341662;28;5689;-80
2023/07/22 01:02:10;;;;;;;;;;;;;;;26.67;67.27;99405.03;339539;29;1322;-80
2023/07/22 01:02:21;;;;;;;;;;;;;;;26.69;66.83;99411.06;340825;28;3458;-79
2023/07/22 01:02:31;;;;;;;;;;;;;;;26.70;66.82;99416.28;341374;28;1365;-80
2023/07/22 01:02:41;;;;;;;;;;;;;;;26.72;66.73;99414.25;342496;28;1718;-80
2023/07/22 01:02:52;;;;;;;;;;;;;;;26.76;66.52;99406.69;342286;28;1233;-80